Terminal Aerodrome Forecast
Issued by NWS

Home | Current Version | Previous Version | Graphics & Text | Print | Product List | Glossary On
Versions: 1 2 3 4 5 6 7 8 9 10 11 12 13 14 15 16 17
000
FTUS43 KMPX 232300
TAFRWF
TAF
KRWF 232334Z 2400/2424 34012KT P6SM OVC020
     FM240700 33010KT 6SM BR OVC008
     FM241700 32007KT P6SM OVC015=

USA.gov is the U.S. government's official web portal to all federal, state and local government web resources and services.